Crews, Louisiana
Current Conditions -  °F | °C
As of 4:15 AM on Wednesday 26 Nov 2014 (Local Time) from KIER Reporting Station
Clear Clear  
Wind Chill: 36°   Ceiling: Unl
Heat Index: 39°   Visibility: 10mi
Dew Point: 35°   Wind: 5mph
Humidity: 86%   Direction: 210°SSW
Pressure: 30.17"   Gusts: NA
Location:  31.6668°N, 92.8023°W
Report Text: KIER 261015Z AUTO 21004KT 10SM CLR 04/02 A3017 RMK AO2 P0001 T00400018
Loading
Personal Weather Stations






























Interactive Weather Map New forecast layout! Learn more

10-Day Weather Forecast

Advertisements
Track Severe Weather on mobile